createdAt,value
2023-04-18T00:01:23.715Z,66.20
2023-04-18T00:03:51.150Z,65.40
2023-04-18T00:06:18.228Z,65.40
2023-04-18T00:08:44.938Z,64.70
2023-04-18T00:11:11.594Z,63.90
2023-04-18T00:13:39.321Z,63.50
2023-04-18T00:16:07.934Z,62.70
2023-04-18T00:18:36.714Z,63.10
2023-04-18T00:21:04.310Z,62.80
2023-04-18T00:23:31.146Z,62.50
2023-04-18T00:25:57.881Z,63.30
2023-04-18T00:28:24.722Z,62.10
2023-04-18T00:30:51.770Z,62.10
2023-04-18T00:33:18.636Z,62.00
2023-04-18T00:35:45.410Z,61.30
2023-04-18T00:38:12.104Z,60.90
2023-04-18T00:40:41.029Z,60.60
2023-04-18T00:43:08.429Z,60.40
2023-04-18T00:45:35.399Z,60.80
2023-04-18T00:48:02.261Z,60.30
2023-04-18T00:50:29.065Z,60.00
2023-04-18T00:52:56.430Z,59.60
2023-04-18T00:55:24.330Z,59.80
2023-04-18T00:57:51.852Z,59.80
2023-04-18T01:00:18.787Z,59.40
2023-04-18T01:02:47.779Z,58.70
2023-04-18T01:05:14.532Z,58.80
2023-04-18T01:07:41.791Z,58.90
2023-04-18T01:10:10.571Z,59.30
2023-04-18T01:12:37.708Z,60.40
2023-04-18T01:15:08.151Z,59.40
2023-04-18T01:17:36.426Z,61.00
2023-04-18T01:20:06.341Z,59.40
2023-04-18T01:22:33.438Z,59.90
2023-04-18T01:25:00.179Z,59.90
2023-04-18T01:27:26.990Z,59.20
2023-04-18T01:29:53.790Z,59.20
2023-04-18T01:32:20.947Z,59.30
2023-04-18T01:34:47.809Z,58.90
2023-04-18T01:37:14.637Z,59.10
2023-04-18T01:39:41.309Z,59.00
2023-04-18T01:42:08.033Z,59.70
2023-04-18T01:44:34.721Z,58.80
2023-04-18T01:47:01.513Z,58.80
2023-04-18T01:49:28.339Z,60.00
2023-04-18T01:51:55.042Z,58.90
2023-04-18T01:54:21.748Z,58.70
2023-04-18T01:56:48.584Z,58.70
2023-04-18T01:59:15.320Z,58.80
2023-04-18T02:01:42.385Z,58.90
2023-04-18T02:04:09.109Z,58.80
2023-04-18T02:06:35.990Z,58.70
2023-04-18T02:09:02.674Z,58.90
2023-04-18T02:11:30.196Z,58.70
2023-04-18T02:13:57.405Z,59.60
2023-04-18T02:16:25.100Z,58.70
2023-04-18T02:18:52.467Z,58.60
2023-04-18T02:21:19.190Z,58.80
2023-04-18T02:23:45.850Z,58.80
2023-04-18T02:26:12.536Z,58.60
2023-04-18T02:28:39.320Z,58.90
2023-04-18T02:31:07.210Z,59.10
2023-04-18T02:33:34.364Z,59.30
2023-04-18T02:36:01.699Z,59.00
2023-04-18T02:38:28.382Z,59.10
2023-04-18T02:40:56.005Z,59.40
2023-04-18T02:43:22.729Z,59.60
2023-04-18T02:45:50.220Z,59.40
2023-04-18T02:48:16.942Z,59.40
2023-04-18T02:50:45.289Z,59.50
2023-04-18T02:53:12.376Z,59.50
2023-04-18T02:55:50.995Z,60.50
2023-04-18T02:58:18.921Z,59.50
2023-04-18T03:00:56.129Z,59.40
2023-04-18T03:03:42.825Z,60.60
2023-04-18T03:06:19.734Z,59.40
2023-04-18T03:08:46.768Z,59.40
2023-04-18T03:11:13.956Z,59.30
2023-04-18T03:13:41.020Z,59.40
2023-04-18T03:16:08.320Z,60.00
2023-04-18T03:18:35.424Z,59.90
2023-04-18T03:21:02.607Z,59.70
2023-04-18T03:23:31.414Z,59.60
2023-04-18T03:26:01.043Z,59.70
2023-04-18T03:28:31.074Z,60.00
2023-04-18T03:30:58.701Z,59.80
2023-04-18T03:33:25.667Z,60.10
2023-04-18T03:36:01.511Z,60.00
2023-04-18T03:38:28.245Z,60.20
2023-04-18T03:40:55.276Z,59.90
2023-04-18T03:43:29.869Z,60.10
2023-04-18T03:45:56.881Z,60.00
2023-04-18T03:48:23.905Z,60.10
2023-04-18T03:50:50.920Z,59.90
2023-04-18T03:53:17.712Z,60.10
2023-04-18T03:55:44.577Z,60.20
2023-04-18T03:58:14.129Z,60.20
2023-04-18T04:00:41.536Z,60.00
2023-04-18T04:03:11.229Z,60.00
2023-04-18T04:05:38.233Z,59.90
2023-04-18T04:08:05.280Z,60.10
2023-04-18T04:10:33.855Z,60.20
2023-04-18T04:13:00.741Z,60.10
2023-04-18T04:15:28.127Z,60.00
2023-04-18T04:18:01.520Z,60.00
2023-04-18T04:20:28.988Z,59.70
2023-04-18T04:23:03.095Z,59.50
2023-04-18T04:25:33.287Z,60.00
2023-04-18T04:28:03.503Z,59.70
2023-04-18T04:30:35.770Z,59.30
2023-04-18T04:33:03.301Z,59.40
2023-04-18T04:35:30.060Z,59.30
2023-04-18T04:37:56.816Z,59.40
2023-04-18T04:40:30.061Z,59.20
2023-04-18T04:43:05.465Z,59.40
2023-04-18T04:45:38.833Z,59.80
2023-04-18T04:48:06.028Z,59.80
2023-04-18T04:50:41.307Z,60.20
2023-04-18T04:53:08.850Z,62.40
2023-04-18T04:55:35.944Z,61.50
2023-04-18T04:58:04.402Z,60.00
2023-04-18T05:00:42.039Z,59.90
2023-04-18T05:03:09.507Z,59.90
2023-04-18T05:05:36.452Z,60.30
2023-04-18T05:08:03.874Z,60.00
2023-04-18T05:10:30.637Z,60.30
2023-04-18T05:12:57.351Z,59.90
2023-04-18T05:15:24.723Z,60.00
2023-04-18T05:17:51.498Z,60.10
2023-04-18T05:20:18.253Z,60.30
2023-04-18T05:22:44.972Z,60.50
2023-04-18T05:25:12.461Z,60.80
2023-04-18T05:27:39.504Z,61.20
2023-04-18T05:30:07.039Z,60.70
2023-04-18T05:32:34.384Z,61.30
2023-04-18T05:35:01.121Z,60.60
2023-04-18T05:37:27.776Z,60.30
2023-04-18T05:39:54.468Z,60.50
2023-04-18T05:42:21.176Z,60.40
2023-04-18T05:44:47.872Z,60.30
2023-04-18T05:47:14.648Z,60.40
2023-04-18T05:49:41.310Z,60.30
2023-04-18T05:52:08.026Z,60.20
2023-04-18T05:54:34.783Z,60.50
2023-04-18T05:57:03.169Z,60.50
2023-04-18T05:59:31.037Z,60.40
2023-04-18T06:01:57.861Z,60.20
2023-04-18T06:04:24.760Z,60.10
2023-04-18T06:06:51.779Z,60.50
2023-04-18T06:09:18.475Z,60.70
2023-04-18T06:11:45.377Z,60.70
2023-04-18T06:14:12.220Z,60.80
2023-04-18T06:16:39.302Z,60.90
2023-04-18T06:19:06.083Z,60.60
2023-04-18T06:21:32.853Z,60.40
2023-04-18T06:24:01.244Z,60.10
2023-04-18T06:26:28.116Z,60.30
2023-04-18T06:28:54.773Z,60.40
2023-04-18T06:31:21.587Z,60.20
2023-04-18T06:33:48.418Z,59.90
2023-04-18T06:36:15.369Z,59.70
2023-04-18T06:38:42.002Z,60.10
2023-04-18T06:41:08.800Z,59.30
2023-04-18T06:43:36.256Z,59.10
2023-04-18T06:46:04.966Z,58.70
2023-04-18T06:48:31.998Z,60.00
2023-04-18T06:50:58.703Z,58.70
2023-04-18T06:53:25.372Z,58.20
2023-04-18T06:55:52.108Z,58.10
2023-04-18T06:58:18.741Z,58.30
2023-04-18T07:00:48.805Z,58.10
2023-04-18T07:03:15.736Z,58.10
2023-04-18T07:05:42.588Z,57.70
2023-04-18T07:08:09.320Z,57.30
2023-04-18T07:10:36.108Z,57.20
2023-04-18T07:13:03.387Z,57.30
2023-04-18T07:15:30.100Z,57.50
2023-04-18T07:17:57.284Z,57.70
2023-04-18T07:20:23.971Z,58.30
2023-04-18T07:22:50.752Z,57.70
2023-04-18T07:25:17.626Z,57.40
2023-04-18T07:27:44.413Z,57.50
2023-04-18T07:30:11.631Z,57.20
2023-04-18T07:32:38.308Z,57.60
2023-04-18T07:35:05.394Z,57.40
2023-04-18T07:37:32.556Z,57.50
2023-04-18T07:39:59.343Z,57.60
2023-04-18T07:42:26.119Z,57.50
2023-04-18T07:44:58.236Z,56.90
2023-04-18T07:47:27.603Z,58.90
2023-04-18T07:49:56.720Z,57.10
2023-04-18T07:52:23.490Z,56.30
2023-04-18T07:54:50.153Z,56.00
2023-04-18T07:57:16.819Z,55.70
2023-04-18T07:59:43.680Z,55.40
2023-04-18T08:02:10.459Z,55.50
2023-04-18T08:04:37.409Z,55.40
2023-04-18T08:07:04.222Z,55.10
2023-04-18T08:09:30.943Z,55.50
2023-04-18T08:11:59.315Z,55.80
2023-04-18T08:14:26.044Z,55.70
2023-04-18T08:16:52.894Z,55.10
2023-04-18T08:19:19.654Z,55.20
2023-04-18T08:21:46.393Z,55.30
2023-04-18T08:24:13.061Z,54.80
2023-04-18T08:26:39.789Z,54.70
2023-04-18T08:29:06.501Z,54.60
2023-04-18T08:31:33.286Z,54.30
2023-04-18T08:34:00.181Z,53.90
2023-04-18T08:36:27.879Z,53.70
2023-04-18T08:38:54.590Z,53.10
2023-04-18T08:41:23.534Z,53.30
2023-04-18T08:43:50.974Z,54.30
2023-04-18T08:46:18.928Z,54.00
2023-04-18T08:48:49.452Z,52.90
2023-04-18T08:51:16.133Z,54.90
2023-04-18T08:53:44.705Z,53.20
2023-04-18T08:56:14.561Z,53.20
2023-04-18T08:58:41.370Z,53.30
2023-04-18T09:01:08.815Z,53.20
2023-04-18T09:03:39.529Z,53.60
2023-04-18T09:06:16.009Z,54.60
2023-04-18T09:08:44.021Z,54.30
2023-04-18T09:11:28.622Z,54.80
2023-04-18T09:13:58.542Z,55.70
2023-04-18T09:16:27.462Z,54.00
2023-04-18T09:19:14.899Z,53.00
2023-04-18T09:21:46.074Z,55.10
2023-04-18T09:24:24.005Z,53.50
2023-04-18T09:26:53.740Z,54.50
2023-04-18T09:29:23.711Z,53.10
2023-04-18T09:32:08.558Z,52.70
2023-04-18T09:34:41.706Z,55.30
2023-04-18T09:37:13.456Z,53.20
2023-04-18T09:39:42.550Z,55.50
2023-04-18T09:42:10.852Z,55.00
2023-04-18T09:44:38.833Z,53.40
2023-04-18T09:47:07.647Z,53.90
2023-04-18T09:49:35.108Z,53.80
2023-04-18T09:52:06.357Z,52.20
2023-04-18T09:54:35.742Z,53.10
2023-04-18T09:57:05.269Z,51.40
2023-04-18T09:59:41.649Z,52.00
2023-04-18T10:02:15.468Z,52.90
2023-04-18T10:04:45.598Z,52.80
2023-04-18T10:07:13.329Z,52.90
2023-04-18T10:09:44.427Z,51.50
2023-04-18T10:12:14.776Z,52.20
2023-04-18T10:14:43.134Z,51.60
2023-04-18T10:17:11.737Z,52.30
2023-04-18T10:19:41.972Z,51.90
2023-04-18T10:22:08.838Z,51.80
2023-04-18T10:24:48.483Z,51.40
2023-04-18T10:27:19.709Z,53.20
2023-04-18T10:29:51.181Z,51.90
2023-04-18T10:32:24.453Z,49.80
2023-04-18T10:34:53.784Z,51.30
2023-04-18T10:37:20.586Z,50.90
2023-04-18T10:39:58.164Z,49.60
2023-04-18T10:42:50.909Z,51.50
2023-04-18T10:45:18.522Z,51.30
2023-04-18T10:47:45.565Z,49.30
2023-04-18T10:50:12.590Z,48.40
2023-04-18T10:52:39.653Z,48.10
2023-04-18T10:55:31.220Z,48.30
2023-04-18T10:57:59.290Z,49.20
2023-04-18T11:00:26.665Z,48.40
2023-04-18T11:02:57.769Z,47.20
2023-04-18T11:05:29.146Z,48.40
2023-04-18T11:07:55.987Z,47.80
2023-04-18T11:10:25.448Z,46.40
2023-04-18T11:12:53.371Z,47.30
2023-04-18T11:15:24.957Z,46.50
2023-04-18T11:18:02.512Z,46.90
2023-04-18T11:20:40.815Z,47.40
2023-04-18T11:23:17.794Z,47.40
2023-04-18T11:25:47.212Z,47.60
2023-04-18T11:28:19.931Z,46.50
2023-04-18T11:30:47.004Z,48.50
2023-04-18T11:33:14.551Z,47.30
2023-04-18T11:35:43.100Z,47.80
2023-04-18T11:38:15.280Z,48.20
2023-04-18T11:40:49.252Z,48.80
2023-04-18T11:43:21.440Z,49.90
2023-04-18T11:45:52.193Z,49.90
2023-04-18T11:48:19.084Z,49.30
2023-04-18T11:50:45.752Z,47.70
2023-04-18T11:53:12.409Z,47.70
2023-04-18T11:55:39.282Z,47.70
2023-04-18T11:58:06.933Z,47.80
2023-04-18T12:00:38.732Z,47.80
2023-04-18T12:03:13.367Z,49.20
2023-04-18T12:05:42.227Z,48.20
2023-04-18T12:08:11.708Z,47.50
2023-04-18T12:10:46.282Z,48.50
2023-04-18T12:13:13.208Z,47.40
2023-04-18T12:15:42.279Z,46.90
2023-04-18T12:18:10.774Z,46.70
2023-04-18T12:20:52.534Z,46.20
2023-04-18T12:23:40.073Z,46.40
2023-04-18T12:26:15.960Z,47.80
2023-04-18T12:28:45.905Z,46.30
2023-04-18T12:31:12.793Z,47.30
2023-04-18T12:33:39.599Z,46.30
2023-04-18T12:36:08.300Z,45.90
2023-04-18T12:38:35.601Z,45.60
2023-04-18T12:41:02.432Z,46.40
2023-04-18T12:43:29.253Z,46.80
2023-04-18T12:45:56.429Z,47.10
2023-04-18T12:48:23.247Z,46.70
2023-04-18T12:50:50.001Z,46.40
2023-04-18T12:53:16.918Z,46.50
2023-04-18T12:55:43.669Z,46.50
2023-04-18T12:58:10.333Z,46.60
2023-04-18T13:00:37.185Z,47.00
2023-04-18T13:03:04.667Z,47.10
2023-04-18T13:05:33.861Z,47.30
2023-04-18T13:10:31.611Z,47.30
2023-04-18T13:12:58.446Z,47.80
2023-04-18T13:15:26.071Z,48.80
2023-04-18T13:17:53.098Z,48.10
2023-04-18T13:20:19.788Z,48.10
2023-04-18T13:22:46.512Z,48.10
2023-04-18T13:25:13.581Z,48.10
2023-04-18T13:27:42.078Z,48.40
2023-04-18T13:30:10.645Z,48.70
2023-04-18T13:32:38.949Z,49.00
2023-04-18T13:35:08.699Z,48.00
2023-04-18T13:37:35.653Z,48.40
2023-04-18T13:40:05.363Z,47.90
2023-04-18T13:42:33.710Z,47.70
2023-04-18T13:45:00.414Z,47.60
2023-04-18T13:47:27.465Z,47.60
2023-04-18T13:49:54.249Z,46.90
2023-04-18T13:52:20.948Z,47.80
2023-04-18T13:54:48.206Z,46.90
2023-04-18T13:57:15.172Z,46.60
2023-04-18T13:59:41.969Z,46.60
2023-04-18T14:02:10.158Z,46.40
2023-04-18T14:04:37.439Z,46.40
2023-04-18T14:07:06.135Z,45.40
2023-04-18T14:09:33.500Z,45.10
2023-04-18T14:12:00.257Z,45.00
2023-04-18T14:14:26.968Z,44.90
2023-04-18T14:16:54.019Z,44.90
2023-04-18T14:19:20.996Z,45.30
2023-04-18T14:21:48.368Z,45.30
2023-04-18T14:24:16.237Z,45.20
2023-04-18T14:26:43.086Z,45.40
2023-04-18T14:29:09.759Z,45.20
2023-04-18T14:31:36.634Z,46.20
2023-04-18T14:34:03.394Z,45.70
2023-04-18T14:36:30.882Z,46.00
2023-04-18T14:38:57.714Z,46.20
2023-04-18T14:41:24.483Z,46.00
2023-04-18T14:43:51.242Z,45.90
2023-04-18T14:46:18.007Z,45.90
2023-04-18T14:48:46.745Z,45.40
2023-04-18T14:51:15.429Z,44.60
2023-04-18T14:53:42.269Z,43.70
2023-04-18T14:56:09.050Z,42.90
2023-04-18T14:58:36.161Z,41.70
2023-04-18T15:01:04.264Z,41.60
2023-04-18T15:03:31.322Z,41.70
2023-04-18T15:05:58.381Z,41.80
2023-04-18T15:08:25.483Z,41.20
2023-04-18T15:10:52.176Z,40.70
2023-04-18T15:13:19.084Z,39.60
2023-04-18T15:15:53.300Z,40.40
2023-04-18T15:18:20.489Z,39.30
2023-04-18T15:20:47.457Z,38.60
2023-04-18T15:23:14.615Z,38.20
2023-04-18T15:25:42.437Z,38.50
2023-04-18T15:28:09.254Z,38.20
2023-04-18T15:30:36.266Z,39.10
2023-04-18T15:33:03.260Z,39.30
2023-04-18T15:35:30.178Z,38.80
2023-04-18T15:37:57.446Z,38.60
2023-04-18T15:40:24.493Z,38.50
2023-04-18T15:42:53.515Z,37.90
2023-04-18T15:45:20.904Z,38.10
2023-04-18T15:47:47.799Z,38.00
2023-04-18T15:50:16.068Z,38.60
2023-04-18T15:52:43.155Z,37.10
2023-04-18T15:55:13.380Z,36.80
2023-04-18T15:57:41.365Z,36.40
2023-04-18T16:00:15.752Z,36.30
2023-04-18T16:02:44.151Z,36.60
2023-04-18T16:05:12.394Z,36.90
2023-04-18T16:07:40.426Z,36.70
2023-04-18T16:10:12.761Z,36.80
2023-04-18T16:12:40.086Z,36.60
2023-04-18T16:15:08.432Z,36.60
2023-04-18T16:17:36.761Z,36.30
2023-04-18T16:20:04.035Z,36.80
2023-04-18T16:22:31.058Z,37.10
2023-04-18T16:24:57.717Z,38.00
2023-04-18T16:27:24.447Z,38.80
2023-04-18T16:29:51.346Z,39.00
2023-04-18T16:32:18.065Z,39.40
2023-04-18T16:34:44.851Z,40.10
2023-04-18T16:37:11.697Z,40.50
2023-04-18T16:39:38.816Z,40.50
2023-04-18T16:42:05.640Z,40.40
2023-04-18T16:44:33.115Z,39.80
2023-04-18T16:46:59.978Z,39.90
2023-04-18T16:49:26.932Z,40.10
2023-04-18T16:51:53.648Z,40.50
2023-04-18T16:54:20.447Z,40.80
2023-04-18T16:56:47.364Z,40.70
2023-04-18T16:59:14.209Z,41.50
2023-04-18T17:01:40.998Z,41.40
2023-04-18T17:04:07.831Z,42.10
2023-04-18T17:06:34.691Z,42.70
2023-04-18T17:09:02.029Z,42.50
2023-04-18T17:11:28.750Z,42.80
2023-04-18T17:13:56.270Z,42.80
2023-04-18T17:16:23.295Z,42.00
2023-04-18T17:18:50.085Z,43.30
2023-04-18T17:21:16.935Z,43.50
2023-04-18T17:23:43.663Z,43.60
2023-04-18T17:26:10.462Z,43.70
2023-04-18T17:28:37.192Z,43.90
2023-04-18T17:31:04.319Z,44.10
2023-04-18T17:33:31.606Z,45.20
2023-04-18T17:35:58.796Z,44.10
2023-04-18T17:38:25.635Z,45.30
2023-04-18T17:40:59.882Z,43.90
2023-04-18T17:43:26.968Z,44.70
2023-04-18T17:45:54.069Z,44.00
2023-04-18T17:48:21.103Z,44.40
2023-04-18T17:50:47.801Z,44.70
2023-04-18T17:53:14.556Z,44.80
2023-04-18T17:55:41.317Z,45.00
2023-04-18T17:58:08.069Z,45.20
2023-04-18T18:00:35.059Z,45.40
2023-04-18T18:03:02.307Z,45.60
2023-04-18T18:05:30.271Z,45.90
2023-04-18T18:07:57.655Z,46.10
2023-04-18T18:10:25.000Z,46.40
2023-04-18T18:12:51.747Z,46.60
2023-04-18T18:15:19.022Z,47.10
2023-04-18T18:17:48.608Z,47.30
2023-04-18T18:20:15.641Z,48.20
2023-04-18T18:22:43.112Z,47.60
2023-04-18T18:25:10.535Z,48.10
2023-04-18T18:27:37.524Z,48.10
2023-04-18T18:30:04.855Z,48.20
2023-04-18T18:32:31.584Z,48.50
2023-04-18T18:34:58.381Z,48.40
2023-04-18T18:37:26.459Z,48.70
2023-04-18T18:39:59.750Z,48.90
2023-04-18T18:42:26.488Z,50.30
2023-04-18T18:44:53.211Z,49.80
2023-04-18T18:47:19.951Z,50.10
2023-04-18T18:49:47.267Z,50.40
2023-04-18T18:52:14.117Z,50.70
2023-04-18T18:54:40.829Z,51.10
2023-04-18T18:57:08.548Z,51.70
2023-04-18T18:59:35.771Z,52.20
2023-04-18T19:02:02.710Z,52.40
2023-04-18T19:04:29.625Z,52.90
2023-04-18T19:06:56.459Z,52.70
2023-04-18T19:09:23.571Z,53.00
2023-04-18T19:11:51.113Z,53.30
2023-04-18T19:14:17.873Z,53.60
2023-04-18T19:16:44.748Z,53.70
2023-04-18T19:19:11.547Z,53.60
2023-04-18T19:21:39.843Z,53.20
2023-04-18T19:24:06.830Z,53.30
2023-04-18T19:26:33.561Z,52.90
2023-04-18T19:29:00.345Z,52.60
2023-04-18T19:31:27.151Z,52.60
2023-04-18T19:33:54.023Z,52.40
2023-04-18T19:36:22.404Z,53.70
2023-04-18T19:38:49.147Z,53.00
2023-04-18T19:41:15.868Z,53.10
2023-04-18T19:43:42.639Z,53.70
2023-04-18T19:46:09.577Z,53.20
2023-04-18T19:48:36.430Z,53.30
2023-04-18T19:51:04.613Z,53.40
2023-04-18T19:53:31.398Z,53.30
2023-04-18T19:55:58.112Z,53.40
2023-04-18T19:58:38.616Z,53.60
2023-04-18T20:01:06.346Z,55.60
2023-04-18T20:03:34.013Z,53.90
2023-04-18T20:06:01.435Z,53.60
2023-04-18T20:08:29.283Z,53.80
2023-04-18T20:10:56.505Z,53.90
2023-04-18T20:13:23.505Z,53.70
2023-04-18T20:15:50.295Z,53.90
2023-04-18T20:18:17.255Z,53.90
2023-04-18T20:20:44.111Z,53.90
2023-04-18T20:23:11.341Z,54.20
2023-04-18T20:25:38.033Z,54.50
2023-04-18T20:28:05.247Z,54.10
2023-04-18T20:30:32.033Z,54.60
2023-04-18T20:32:58.730Z,54.50
2023-04-18T20:35:27.852Z,54.50
2023-04-18T20:37:54.905Z,55.60
2023-04-18T20:40:22.069Z,54.80
2023-04-18T20:42:48.743Z,54.70
2023-04-18T20:45:15.504Z,54.40
2023-04-18T20:47:43.093Z,54.70
2023-04-18T20:50:10.961Z,54.90
2023-04-18T20:52:37.804Z,55.00
2023-04-18T20:55:04.855Z,54.70
2023-04-18T20:57:31.580Z,54.90
2023-04-18T20:59:59.437Z,54.90
2023-04-18T21:02:26.417Z,55.10
2023-04-18T21:04:53.354Z,55.20
2023-04-18T21:07:20.561Z,55.20
2023-04-18T21:09:47.345Z,55.20
2023-04-18T21:12:14.073Z,55.00
2023-04-18T21:14:40.694Z,55.00
2023-04-18T21:17:09.496Z,55.00
2023-04-18T21:19:36.564Z,55.30
2023-04-18T21:22:04.234Z,55.80
2023-04-18T21:24:30.960Z,55.30
2023-04-18T21:26:57.739Z,55.20
2023-04-18T21:29:24.483Z,55.50
2023-04-18T21:31:51.615Z,55.50
2023-04-18T21:34:18.519Z,55.50
2023-04-18T21:36:45.356Z,55.50
2023-04-18T21:39:12.021Z,55.90
2023-04-18T21:41:38.781Z,55.70
2023-04-18T21:44:05.650Z,56.30
2023-04-18T21:46:32.315Z,56.10
2023-04-18T21:48:59.401Z,56.00
2023-04-18T21:51:27.153Z,56.10
2023-04-18T21:53:54.125Z,56.00
2023-04-18T21:56:21.115Z,56.30
2023-04-18T21:58:47.869Z,56.20
2023-04-18T22:01:14.718Z,56.20
2023-04-18T22:03:41.722Z,56.30
2023-04-18T22:06:08.789Z,56.40
2023-04-18T22:08:35.965Z,56.40
2023-04-18T22:11:04.590Z,56.10
2023-04-18T22:13:33.095Z,56.70
2023-04-18T22:16:03.771Z,56.70
2023-04-18T22:18:33.878Z,57.20
2023-04-18T22:21:03.101Z,58.20
2023-04-18T22:23:30.954Z,57.60
2023-04-18T22:25:57.713Z,57.80
2023-04-18T22:28:24.600Z,56.90
2023-04-18T22:30:51.475Z,57.20
2023-04-18T22:33:18.340Z,57.60
2023-04-18T22:35:47.140Z,57.50
2023-04-18T22:38:14.047Z,58.80
2023-04-18T22:40:40.830Z,57.50
2023-04-18T22:43:07.545Z,57.60
2023-04-18T22:45:34.729Z,57.60
2023-04-18T22:48:01.461Z,58.00
2023-04-18T22:50:30.190Z,57.60
2023-04-18T22:52:57.421Z,57.60
2023-04-18T22:55:24.250Z,57.60
2023-04-18T22:57:50.968Z,57.70
2023-04-18T23:00:17.812Z,58.20
2023-04-18T23:02:44.607Z,58.20
2023-04-18T23:05:11.777Z,58.00
2023-04-18T23:07:38.618Z,58.50
2023-04-18T23:10:07.200Z,58.20
2023-04-18T23:12:34.220Z,59.60
2023-04-18T23:15:01.010Z,58.50
2023-04-18T23:17:27.739Z,58.50
2023-04-18T23:19:54.461Z,58.50
2023-04-18T23:22:21.332Z,58.70
2023-04-18T23:24:48.099Z,58.60
2023-04-18T23:27:15.088Z,58.80
2023-04-18T23:29:42.556Z,59.00
2023-04-18T23:32:09.275Z,59.80
2023-04-18T23:34:36.119Z,59.10
2023-04-18T23:37:02.938Z,59.10
2023-04-18T23:39:29.699Z,59.20
2023-04-18T23:41:56.440Z,59.10
2023-04-18T23:44:23.381Z,59.10
2023-04-18T23:46:50.208Z,59.60
2023-04-18T23:49:16.935Z,59.30
2023-04-18T23:51:43.665Z,59.50
2023-04-18T23:54:10.800Z,59.60
2023-04-18T23:56:37.440Z,60.20
2023-04-18T23:59:04.124Z,60.00
